Time;durP1;ratioP1;P1;durP2;ratioP2;P2;SDS_P1;SDS_P2;PMS_P1;PMS_P2;Temp;Humidity;BMP_temperature;BMP_pressure;BME280_temperature;BME280_humidity;BME280_pressure;Samples;Min_cycle;Max_cycle;Signal;HPM_P1;HPM_P2
2022/01/30 02:25:49;;;;;;;7.72;3.30;;;;;;;3.03;66.80;94720.25;5033659;28;20034;-85
2022/01/30 02:28:18;;;;;;;9.52;3.90;;;;;;;2.83;66.06;94713.41;5035182;28;20057;-85
2022/01/30 02:30:52;;;;;;;6.13;2.80;;;;;;;2.55;68.30;94716.38;5007397;28;20112;-85
2022/01/30 02:33:21;;;;;;;6.75;3.15;;;;;;;2.24;71.96;94712.75;5007957;28;20354;-85
2022/01/30 02:35:47;;;;;;;7.18;2.83;;;;;;;2.08;72.44;94701.88;5008033;28;20037;-85
2022/01/30 02:38:15;;;;;;;5.60;2.50;;;;;;;2.28;69.71;94693.22;5026370;28;20415;-84
2022/01/30 02:40:42;;;;;;;4.93;2.50;;;;;;;2.29;68.75;94688.88;5025893;28;20032;-85
2022/01/30 02:43:08;;;;;;;6.57;2.90;;;;;;;2.55;67.65;94682.75;5021550;28;20053;-84
2022/01/30 02:45:36;;;;;;;5.53;2.53;;;;;;;2.87;65.09;94682.75;5026058;28;20668;-84
2022/01/30 02:53:01;;;;;;;4.00;2.13;;;;;;;3.01;64.99;94672.25;5028154;28;20028;-85
2022/01/30 02:55:26;;;;;;;5.72;2.47;;;;;;;3.48;63.93;94657.13;5034242;28;20330;-84
2022/01/30 02:57:52;;;;;;;10.75;2.72;;;;;;;3.31;63.13;94661.28;5038591;28;20043;-84
2022/01/30 03:00:18;;;;;;;7.35;2.78;;;;;;;2.95;65.37;94648.03;5039658;28;20427;-85
2022/01/30 03:02:43;;;;;;;11.32;2.70;;;;;;;3.07;64.95;94648.91;5038488;28;20029;-84
2022/01/30 03:05:09;;;;;;;4.78;2.10;;;;;;;3.04;62.57;94654.53;5038462;28;20029;-85
2022/01/30 03:07:35;;;;;;;7.40;2.20;;;;;;;3.05;63.11;94648.34;5022023;28;20514;-85
2022/01/30 03:10:00;;;;;;;4.50;2.15;;;;;;;3.09;62.91;94648.72;5038020;28;20125;-84
2022/01/30 03:12:26;;;;;;;7.10;2.15;;;;;;;2.96;63.63;94644.44;5039397;28;20025;-85
2022/01/30 03:14:51;;;;;;;4.43;2.25;;;;;;;3.45;61.28;94646.38;5022000;28;20075;-85
2022/01/30 03:17:16;;;;;;;2.95;2.00;;;;;;;3.38;59.80;94643.84;5038528;28;20434;-85
2022/01/30 03:19:42;;;;;;;5.47;2.50;;;;;;;3.37;61.11;94637.09;5037881;28;20036;-85
2022/01/30 03:22:08;;;;;;;5.18;2.20;;;;;;;3.28;61.57;94639.19;5021754;28;20035;-85
2022/01/30 03:24:37;;;;;;;5.45;1.63;;;;;;;3.34;60.24;94634.94;5021882;28;20032;-86
2022/01/30 03:27:08;;;;;;;4.53;2.30;;;;;;;3.40;60.90;94628.88;5038124;28;20025;-85
2022/01/30 03:29:34;;;;;;;4.63;2.17;;;;;;;3.59;61.03;94627.09;5039239;28;20040;-85
2022/01/30 03:32:00;;;;;;;3.88;1.70;;;;;;;3.58;59.81;94622.94;5037846;28;20037;-85
2022/01/30 03:34:26;;;;;;;4.03;1.70;;;;;;;3.50;60.95;94618.03;5038878;28;20427;-85
2022/01/30 03:36:52;;;;;;;5.22;1.30;;;;;;;3.60;60.10;94610.53;5039107;28;20086;-85
2022/01/30 03:39:18;;;;;;;2.55;1.23;;;;;;;3.39;59.79;94622.94;5038150;28;20130;-85
2022/01/30 03:41:43;;;;;;;2.70;1.17;;;;;;;3.24;60.01;94620.69;5037734;28;20041;-85
2022/01/30 03:44:09;;;;;;;3.20;1.63;;;;;;;3.32;59.15;94611.06;5037948;28;20057;-85
2022/01/30 03:46:34;;;;;;;2.30;1.40;;;;;;;3.48;58.26;94604.50;5037711;28;20079;-85
2022/01/30 03:48:59;;;;;;;2.30;1.17;;;;;;;3.48;57.85;94597.53;5037691;28;20037;-85
2022/01/30 03:51:25;;;;;;;3.78;1.38;;;;;;;3.46;58.92;94596.97;5038753;28;20041;-85
2022/01/30 03:53:50;;;;;;;2.15;1.27;;;;;;;3.40;58.79;94597.81;5037788;28;20358;-85
2022/01/30 03:56:16;;;;;;;2.85;1.27;;;;;;;3.17;59.52;94599.25;5038561;28;20045;-86
2022/01/30 03:58:41;;;;;;;2.05;0.88;;;;;;;3.10;59.67;94593.34;5037390;28;20033;-85
2022/01/30 04:01:07;;;;;;;2.42;0.90;;;;;;;3.11;61.66;94605.28;5019587;28;20029;-85
2022/01/30 04:03:33;;;;;;;3.60;1.40;;;;;;;3.13;62.00;94603.25;5037608;28;20362;-85
2022/01/30 04:05:58;;;;;;;3.88;2.00;;;;;;;2.96;61.14;94603.81;5020725;28;20094;-85
2022/01/30 04:08:24;;;;;;;4.32;1.73;;;;;;;2.81;63.14;94598.97;5037257;28;20435;-85
2022/01/30 04:10:50;;;;;;;5.03;1.80;;;;;;;2.81;63.59;94593.00;5036803;28;20426;-85
2022/01/30 04:13:15;;;;;;;5.35;1.98;;;;;;;2.63;64.65;94594.53;5037344;28;20060;-85
2022/01/30 04:15:41;;;;;;;3.85;1.88;;;;;;;2.50;64.45;94605.00;5037370;28;20172;-85
2022/01/30 04:18:07;;;;;;;4.97;1.52;;;;;;;2.38;64.47;94603.06;5038579;28;20094;-85
2022/01/30 04:20:33;;;;;;;3.20;1.50;;;;;;;2.26;67.58;94600.38;5038420;28;20098;-84
2022/01/30 04:22:58;;;;;;;3.72;1.45;;;;;;;2.29;67.22;94596.56;5020610;28;20033;-85
2022/01/30 04:25:24;;;;;;;2.15;1.45;;;;;;;2.20;67.50;94601.19;5038355;28;20052;-84
2022/01/30 04:27:50;;;;;;;2.53;1.00;;;;;;;2.86;64.40;94602.72;5036926;28;20123;-85
2022/01/30 04:30:16;;;;;;;1.70;1.00;;;;;;;2.48;64.63;94601.81;5036812;28;20037;-85
2022/01/30 04:32:43;;;;;;;5.03;2.40;;;;;;;2.67;64.36;94582.75;5036708;28;20029;-85
2022/01/30 04:35:12;;;;;;;3.05;1.50;;;;;;;2.75;64.46;94591.28;5036816;28;20033;-85
2022/01/30 04:37:59;;;;;;;6.32;1.38;;;;;;;2.76;64.63;94598.03;5036732;28;20148;-85
2022/01/30 05:09:25;;;;;;;3.10;1.35;;;;;;;2.59;62.96;94551.19;5016603;28;20038;-85
2022/01/30 05:11:51;;;;;;;3.97;1.65;;;;;;;2.82;62.28;94550.59;5015841;28;20030;-84
2022/01/30 05:14:20;;;;;;;2.55;1.40;;;;;;;2.91;62.24;94551.91;5014984;28;20056;-84
2022/01/30 05:16:46;;;;;;;3.45;1.42;;;;;;;2.84;62.84;94558.94;5016251;28;20076;-84
2022/01/30 05:19:12;;;;;;;4.22;1.52;;;;;;;2.89;62.10;94553.91;5016260;28;20033;-84
2022/01/30 05:21:39;;;;;;;3.97;1.23;;;;;;;2.63;63.12;94560.09;5015812;28;20034;-84
2022/01/30 05:24:06;;;;;;;3.72;1.27;;;;;;;2.45;64.85;94564.22;5016083;28;20117;-84
2022/01/30 05:26:32;;;;;;;2.20;1.30;;;;;;;2.30;65.58;94564.56;5017557;28;20060;-84
2022/01/30 05:28:58;;;;;;;2.45;1.23;;;;;;;2.28;63.86;94563.94;5015911;28;20443;-84
2022/01/30 05:31:23;;;;;;;3.42;1.30;;;;;;;2.28;63.88;94563.94;5015774;28;20042;-84
2022/01/30 05:33:49;;;;;;;8.85;1.90;;;;;;;2.42;63.98;94556.09;5017103;28;20034;-84
2022/01/30 05:36:15;;;;;;;2.90;1.50;;;;;;;2.48;64.26;94560.44;5016233;28;20037;-84
2022/01/30 05:38:40;;;;;;;5.18;1.90;;;;;;;2.64;62.35;94562.50;5016265;28;20104;-85
2022/01/30 05:41:06;;;;;;;3.00;1.70;;;;;;;2.57;63.29;94553.97;4999178;28;20091;-84
2022/01/30 05:43:33;;;;;;;5.03;1.42;;;;;;;2.52;64.23;94556.41;5015856;28;20072;-84
2022/01/30 05:46:16;;;;;;;6.18;1.60;;;;;;;2.38;63.97;94546.19;4999523;28;20038;-84
2022/01/30 05:48:42;;;;;;;2.83;1.30;;;;;;;2.32;65.48;94551.41;5017315;28;20033;-84
2022/01/30 05:51:07;;;;;;;4.10;1.70;;;;;;;2.19;66.50;94557.47;5015377;28;20038;-84
2022/01/30 05:53:33;;;;;;;3.50;2.00;;;;;;;2.29;65.29;94555.19;5016003;28;20446;-84
2022/01/30 05:55:58;;;;;;;3.72;1.95;;;;;;;2.26;67.24;94546.09;5017220;28;20379;-84
2022/01/30 05:58:31;;;;;;;4.13;2.20;;;;;;;2.12;68.60;94557.50;5015748;28;20037;-84
2022/01/30 06:00:56;;;;;;;6.40;2.17;;;;;;;2.32;66.11;94557.38;5016497;28;20455;-85
2022/01/30 06:03:22;;;;;;;7.97;1.95;;;;;;;1.98;68.19;94552.44;5015949;28;20053;-84
2022/01/30 06:05:49;;;;;;;3.20;1.70;;;;;;;2.07;67.37;94558.13;5016834;28;20037;-84
2022/01/30 06:08:27;;;;;;;5.25;2.20;;;;;;;2.23;66.38;94541.34;4999687;28;20172;-84
2022/01/30 06:10:52;;;;;;;5.10;2.10;;;;;;;2.36;65.25;94543.00;5016726;28;20041;-84
2022/01/30 06:13:18;;;;;;;5.75;1.80;;;;;;;2.36;67.93;94547.38;5016649;28;20038;-84
2022/01/30 06:15:43;;;;;;;5.55;1.95;;;;;;;2.41;65.20;94544.97;5017014;28;20037;-84
2022/01/30 06:18:09;;;;;;;7.07;2.30;;;;;;;2.49;66.64;94531.75;5016546;28;20040;-84
2022/01/30 06:20:34;;;;;;;5.60;2.20;;;;;;;2.44;66.53;94533.41;5015496;28;20044;-84
2022/01/30 06:22:59;;;;;;;5.40;2.00;;;;;;;2.29;67.64;94537.09;5015993;28;20018;-84
2022/01/30 06:25:25;;;;;;;3.83;1.88;;;;;;;2.33;66.66;94534.88;5019794;28;20040;-85
2022/01/30 06:27:50;;;;;;;6.82;2.08;;;;;;;2.18;68.06;94530.03;5003274;28;20026;-84
2022/01/30 06:30:21;;;;;;;3.55;1.70;;;;;;;2.19;68.34;94534.19;5019220;28;20080;-84
2022/01/30 06:32:47;;;;;;;3.95;2.10;;;;;;;2.13;67.40;94528.06;5019626;28;20485;-84
2022/01/30 06:35:13;;;;;;;3.63;1.70;;;;;;;2.04;68.90;94531.91;5019565;28;20057;-84
2022/01/30 06:37:38;;;;;;;4.45;2.10;;;;;;;1.94;68.89;94532.38;5019193;28;20053;-84
2022/01/30 06:40:04;;;;;;;3.55;1.63;;;;;;;1.99;69.34;94537.69;5019037;28;20442;-84
2022/01/30 06:42:30;;;;;;;4.68;2.10;;;;;;;1.93;68.56;94535.97;5022020;28;20400;-84
2022/01/30 06:44:56;;;;;;;4.15;1.85;;;;;;;2.07;68.41;94534.06;5019346;28;20025;-84
2022/01/30 06:47:21;;;;;;;7.05;1.90;;;;;;;2.14;68.37;94536.59;5019020;28;20025;-85
2022/01/30 06:49:47;;;;;;;3.63;2.03;;;;;;;2.27;67.83;94533.94;5018981;28;20129;-84
2022/01/30 06:52:12;;;;;;;4.90;1.77;;;;;;;2.23;69.55;94532.78;5035565;28;20083;-84
2022/01/30 06:54:38;;;;;;;4.85;2.00;;;;;;;2.28;69.26;94542.50;5019074;28;20026;-84
2022/01/30 06:57:04;;;;;;;4.50;2.08;;;;;;;2.34;68.09;94528.72;5019057;28;20028;-84
2022/01/30 06:59:30;;;;;;;4.55;1.95;;;;;;;2.36;68.40;94535.25;5018575;28;20116;-84
2022/01/30 07:01:55;;;;;;;5.22;2.17;;;;;;;2.57;67.66;94533.28;5018498;28;20032;-84
2022/01/30 07:04:21;;;;;;;3.75;1.77;;;;;;;2.44;68.15;94529.03;5020128;28;20541;-84
2022/01/30 07:06:46;;;;;;;4.60;1.70;;;;;;;2.67;66.97;94525.06;5018523;28;20021;-84
2022/01/30 07:09:12;;;;;;;5.65;1.75;;;;;;;2.84;66.49;94522.69;5018798;28;20438;-84
2022/01/30 07:11:37;;;;;;;3.08;1.77;;;;;;;2.90;66.24;94521.84;5029134;28;20129;-84
2022/01/30 07:14:03;;;;;;;4.65;1.70;;;;;;;2.91;66.51;94518.25;5018605;28;20084;-84
2022/01/30 07:16:28;;;;;;;3.80;1.90;;;;;;;3.01;66.28;94514.38;5002343;28;20053;-83
2022/01/30 07:18:54;;;;;;;5.05;1.80;;;;;;;3.23;65.48;94520.69;5002258;28;20057;-84
2022/01/30 07:21:19;;;;;;;5.00;1.67;;;;;;;3.29;67.78;94531.19;5017910;28;20080;-84
2022/01/30 07:23:45;;;;;;;4.78;1.85;;;;;;;3.49;66.82;94523.19;5017949;28;20026;-84
2022/01/30 07:26:10;;;;;;;2.75;1.48;;;;;;;3.49;67.00;94526.56;5025078;28;20025;-84
2022/01/30 07:28:35;;;;;;;4.55;1.73;;;;;;;3.42;67.22;94523.25;5039247;28;20075;-83
2022/01/30 07:31:01;;;;;;;3.38;1.80;;;;;;;3.62;65.87;94512.66;5038921;28;20026;-84
2022/01/30 07:33:26;;;;;;;5.35;1.83;;;;;;;3.56;65.74;94516.13;5038131;28;20116;-84
2022/01/30 07:35:54;;;;;;;5.22;2.00;;;;;;;3.51;65.33;94524.56;5036488;28;20050;-85
2022/01/30 07:38:21;;;;;;;4.97;2.10;;;;;;;3.48;66.33;94525.00;5022210;28;20021;-84
2022/01/30 07:40:47;;;;;;;3.78;1.83;;;;;;;3.86;70.13;94524.91;5038580;28;20401;-84
2022/01/30 07:43:12;;;;;;;4.28;1.73;;;;;;;3.75;72.02;94527.25;5037661;28;20017;-84
2022/01/30 07:45:38;;;;;;;5.05;2.22;;;;;;;3.69;75.12;94525.53;5038005;28;20033;-83
2022/01/30 07:48:03;;;;;;;6.63;2.20;;;;;;;3.66;79.18;94523.38;5021667;28;20048;-84
2022/01/30 07:50:29;;;;;;;6.07;1.88;;;;;;;3.69;73.28;94522.94;5038358;28;20346;-84
2022/01/30 07:52:54;;;;;;;4.25;1.65;;;;;;;3.65;74.39;94524.38;5021421;28;20021;-84
2022/01/30 07:55:20;;;;;;;3.28;1.60;;;;;;;3.81;70.65;94525.59;5037737;28;20033;-84
2022/01/30 07:57:46;;;;;;;5.45;2.00;;;;;;;3.93;70.60;94520.44;5020932;28;20426;-84
2022/01/30 08:00:12;;;;;;;3.40;1.70;;;;;;;3.94;68.29;94522.78;5021026;28;20079;-84
2022/01/30 08:02:37;;;;;;;3.15;1.80;;;;;;;4.17;67.57;94525.69;5037359;28;20037;-84
2022/01/30 08:05:03;;;;;;;6.13;1.85;;;;;;;4.57;70.30;94530.22;5037320;28;20446;-85
2022/01/30 08:07:29;;;;;;;3.20;1.42;;;;;;;4.60;67.67;94516.00;5021275;28;20311;-84
2022/01/30 08:09:55;;;;;;;3.83;1.65;;;;;;;4.45;68.18;94522.44;5037331;28;20021;-84
2022/01/30 08:12:20;;;;;;;2.40;1.30;;;;;;;4.57;67.13;94517.25;5037482;28;20525;-85
2022/01/30 08:14:46;;;;;;;2.85;1.17;;;;;;;4.86;65.59;94519.94;5020774;28;20036;-84
2022/01/30 08:17:18;;;;;;;2.05;1.20;;;;;;;4.81;63.48;94527.63;5017933;28;20022;-83
2022/01/30 08:19:45;;;;;;;3.83;1.20;;;;;;;4.87;63.35;94521.53;5016891;28;20033;-84
2022/01/30 08:22:11;;;;;;;2.78;1.50;;;;;;;4.94;69.40;94537.78;5021031;28;20032;-85
2022/01/30 08:24:36;;;;;;;5.13;2.10;;;;;;;4.98;68.83;94519.16;5020707;28;20029;-84
2022/01/30 08:27:02;;;;;;;7.25;1.80;;;;;;;5.05;70.21;94532.81;5034729;28;20061;-84
2022/01/30 08:29:27;;;;;;;4.18;2.00;;;;;;;5.06;72.57;94537.00;5026798;28;20504;-84
2022/01/30 08:31:55;;;;;;;3.47;1.80;;;;;;;5.17;72.46;94538.00;5037824;28;20040;-84
2022/01/30 08:34:20;;;;;;;3.67;1.95;;;;;;;5.18;70.76;94524.78;5024780;28;20347;-84
2022/01/30 08:36:45;;;;;;;3.33;1.30;;;;;;;5.24;67.25;94525.69;5017459;28;20029;-85
2022/01/30 08:39:11;;;;;;;3.90;1.60;;;;;;;5.37;69.66;94532.41;5016861;28;20029;-84
2022/01/30 08:41:36;;;;;;;2.97;1.40;;;;;;;5.72;68.61;94539.31;5016689;28;20041;-84
2022/01/30 08:44:02;;;;;;;3.63;1.55;;;;;;;5.72;63.26;94531.50;5017054;28;20079;-84
2022/01/30 08:46:28;;;;;;;2.70;1.30;;;;;;;5.80;63.35;94538.94;5018107;28;20034;-85
2022/01/30 08:48:53;;;;;;;3.25;1.40;;;;;;;6.01;64.10;94535.94;5000753;28;20107;-84
2022/01/30 08:51:21;;;;;;;3.85;1.50;;;;;;;6.18;62.63;94533.38;5000457;28;20312;-84
2022/01/30 08:53:46;;;;;;;7.72;1.55;;;;;;;6.22;67.65;94542.28;5016868;28;20084;-85
2022/01/30 08:56:12;;;;;;;6.65;1.85;;;;;;;6.58;66.93;94526.44;5000462;28;20120;-84
2022/01/30 08:58:38;;;;;;;5.72;1.48;;;;;;;6.65;66.14;94537.47;5018054;28;20038;-84
2022/01/30 09:01:04;;;;;;;2.92;1.58;;;;;;;6.64;65.83;94535.91;5016350;28;20033;-84
2022/01/30 09:03:29;;;;;;;4.55;1.60;;;;;;;6.85;72.08;94537.00;5016716;28;20375;-84
2022/01/30 09:05:55;;;;;;;3.85;1.60;;;;;;;6.87;67.56;94534.16;5017774;28;20136;-84
2022/01/30 09:08:20;;;;;;;3.70;1.58;;;;;;;6.82;66.48;94534.88;5000210;28;20037;-84
2022/01/30 09:10:46;;;;;;;4.43;2.08;;;;;;;6.85;68.68;94544.81;5015948;28;20450;-84
2022/01/30 09:13:12;;;;;;;3.45;1.73;;;;;;;7.11;69.05;94542.56;5000103;28;20033;-84
2022/01/30 09:15:40;;;;;;;7.25;2.40;;;;;;;7.19;68.49;94541.34;5016528;28;20037;-84
2022/01/30 09:18:11;;;;;;;5.53;2.03;;;;;;;7.13;67.55;94543.09;5016526;28;20443;-84
2022/01/30 09:20:42;;;;;;;4.32;2.20;;;;;;;6.90;67.03;94547.50;5009538;28;20032;-84
2022/01/30 09:23:09;;;;;;;5.07;2.10;;;;;;;6.82;66.12;94545.28;5016160;28;20129;-85
2022/01/30 09:25:34;;;;;;;6.47;2.53;;;;;;;6.94;67.47;94545.19;5000119;28;20351;-85
2022/01/30 09:28:00;;;;;;;5.72;2.10;;;;;;;6.83;68.45;94543.47;5016394;28;20034;-84
2022/01/30 09:30:26;;;;;;;3.10;1.75;;;;;;;7.00;69.16;94549.44;5016029;28;20034;-84
2022/01/30 09:32:51;;;;;;;6.00;2.30;;;;;;;7.00;67.81;94549.44;5015877;28;20107;-84
2022/01/30 09:35:18;;;;;;;6.97;2.20;;;;;;;6.97;67.79;94555.16;5017631;28;20105;-84
2022/01/30 09:37:44;;;;;;;5.32;2.10;;;;;;;6.82;70.32;94557.53;5016252;28;20048;-84
2022/01/30 09:40:09;;;;;;;6.22;2.80;;;;;;;6.97;75.55;94554.34;5015530;28;20355;-85
2022/01/30 09:42:35;;;;;;;4.47;2.55;;;;;;;6.95;74.98;94565.00;5032714;28;20473;-84
2022/01/30 09:45:04;;;;;;;8.52;3.38;;;;;;;7.01;76.12;94565.84;5035588;28;20480;-85
2022/01/30 09:47:30;;;;;;;6.97;3.58;;;;;;;6.96;75.53;94563.19;5035423;28;20112;-84
2022/01/30 09:49:56;;;;;;;7.43;2.60;;;;;;;7.16;73.95;94578.31;5035454;28;20038;-84
2022/01/30 09:52:22;;;;;;;6.28;3.15;;;;;;;7.13;74.71;94581.41;5035839;28;20041;-84
2022/01/30 09:54:48;;;;;;;7.28;3.15;;;;;;;6.84;75.05;94561.47;5035638;28;20091;-84
2022/01/30 09:57:14;;;;;;;5.43;3.03;;;;;;;6.82;73.41;94565.34;5018823;28;20125;-84
2022/01/30 09:59:39;;;;;;;8.55;3.10;;;;;;;6.97;75.26;94565.56;5034698;28;20034;-84
2022/01/30 10:02:06;;;;;;;8.35;3.22;;;;;;;7.27;77.07;94569.63;5035363;28;20392;-84
2022/01/30 10:04:32;;;;;;;5.80;3.40;;;;;;;6.99;78.49;94568.72;5035402;28;20053;-84
2022/01/30 10:07:04;;;;;;;8.23;3.67;;;;;;;7.15;82.83;94563.72;5035278;28;20069;-85
2022/01/30 10:09:31;;;;;;;8.27;3.60;;;;;;;7.05;78.42;94564.38;5035267;28;20038;-84
2022/01/30 10:12:19;;;;;;;6.68;3.22;;;;;;;7.14;82.23;94567.34;5034985;28;20049;-84
2022/01/30 10:15:06;;;;;;;7.15;3.45;;;;;;;7.21;78.56;94571.34;5035273;28;20029;-84
2022/01/30 10:17:36;;;;;;;10.25;3.40;;;;;;;7.25;79.92;94568.28;5035507;28;20136;-85
2022/01/30 10:20:11;;;;;;;10.10;3.65;;;;;;;7.27;80.60;94572.22;5029197;28;20048;-84
2022/01/30 10:22:56;;;;;;;8.93;3.42;;;;;;;7.40;81.00;94565.84;5019035;28;20033;-84
2022/01/30 10:25:26;;;;;;;6.80;3.25;;;;;;;7.68;79.39;94564.09;5036588;28;20037;-85
2022/01/30 10:28:15;;;;;;;7.63;3.38;;;;;;;7.63;75.13;94561.44;5036256;28;20029;-84
2022/01/30 10:30:42;;;;;;;5.20;2.88;;;;;;;7.68;75.01;94555.50;5035091;28;20033;-83
2022/01/30 10:33:12;;;;;;;11.38;3.53;;;;;;;7.81;79.22;94551.72;5035340;28;20037;-83
2022/01/30 10:35:56;;;;;;;8.30;3.67;;;;;;;7.93;79.35;94549.75;5035393;28;20454;-83
2022/01/30 10:38:36;;;;;;;9.63;4.70;;;;;;;8.21;79.20;94546.09;5036810;28;20044;-84
2022/01/30 10:41:16;;;;;;;15.73;6.65;;;;;;;8.05;76.30;94539.97;5034736;28;20075;-84
2022/01/30 10:43:58;;;;;;;14.32;6.72;;;;;;;8.18;78.44;94551.06;5036273;28;20034;-84
2022/01/30 10:46:28;;;;;;;16.85;7.50;;;;;;;8.44;80.57;94552.06;5018802;28;20056;-83
2022/01/30 10:49:06;;;;;;;13.95;7.40;;;;;;;8.46;75.63;94547.38;5036342;28;20142;-84
2022/01/30 10:51:32;;;;;;;17.83;7.85;;;;;;;8.44;77.05;94544.22;5034540;28;20037;-84
2022/01/30 10:54:06;;;;;;;18.90;7.90;;;;;;;8.49;77.66;94546.88;5025915;28;20037;-83
2022/01/30 10:56:32;;;;;;;19.67;8.88;;;;;;;8.51;77.26;94538.81;5015383;28;20334;-83
2022/01/30 10:59:08;;;;;;;23.95;9.60;;;;;;;8.53;79.35;94534.13;5015383;28;20451;-83
2022/01/30 11:01:33;;;;;;;18.65;8.52;;;;;;;8.86;85.18;94534.09;4998590;28;20030;-83
2022/01/30 11:04:00;;;;;;;17.63;8.23;;;;;;;8.93;80.85;94531.28;5016316;28;20026;-83
2022/01/30 11:06:30;;;;;;;18.88;8.18;;;;;;;8.91;77.90;94528.91;5016574;28;20125;-84
2022/01/30 11:09:31;;;;;;;19.60;8.35;;;;;;;9.06;76.46;94528.22;5016086;28;20118;-83
2022/01/30 11:12:07;;;;;;;16.45;7.25;;;;;;;9.21;72.01;94524.09;5017697;28;20100;-83
2022/01/30 11:15:16;;;;;;;19.20;7.38;;;;;;;9.18;74.70;94520.97;5003594;28;20030;-83
2022/01/30 11:17:25;;;;;;;16.58;7.38;;;;;;;9.11;77.06;94515.16;5018324;28;20080;-83
2022/01/30 11:19:56;;;;;;;14.82;7.25;;;;;;;9.26;76.92;94514.47;5017999;28;20061;-84
2022/01/30 11:22:23;;;;;;;19.95;8.10;;;;;;;9.32;75.27;94510.81;5018893;28;20036;-83
2022/01/30 11:24:54;;;;;;;16.15;6.93;;;;;;;9.38;76.35;94516.84;5018161;28;20450;-83
2022/01/30 11:27:22;;;;;;;17.88;6.95;;;;;;;9.60;75.29;94510.63;5018586;28;20038;-84
2022/01/30 11:29:51;;;;;;;18.08;6.88;;;;;;;9.55;73.69;94514.06;5021484;28;20041;-83
2022/01/30 11:32:21;;;;;;;13.00;6.18;;;;;;;9.61;74.50;94506.97;5019186;28;20342;-83
2022/01/30 11:34:46;;;;;;;12.98;6.30;;;;;;;9.67;71.74;94500.75;5021807;28;20043;-83
2022/01/30 11:37:14;;;;;;;17.02;7.13;;;;;;;9.67;71.16;94500.75;5039319;28;20041;-84
2022/01/30 11:39:45;;;;;;;14.23;7.22;;;;;;;9.81;73.47;94503.63;5037806;28;20091;-84
2022/01/30 11:42:33;;;;;;;15.32;6.50;;;;;;;9.71;70.06;94499.16;5038064;28;20033;-84
2022/01/30 11:45:04;;;;;;;14.80;6.05;;;;;;;9.71;69.21;94493.94;5038912;28;20346;-84
2022/01/30 11:47:47;;;;;;;14.55;6.20;;;;;;;9.86;71.23;94495.81;5037906;28;20075;-84
2022/01/30 11:50:13;;;;;;;14.35;6.22;;;;;;;9.99;67.08;94497.13;5021345;28;20311;-83
2022/01/30 11:52:57;;;;;;;13.00;6.00;;;;;;;9.99;69.78;94486.66;5037878;28;20049;-83
2022/01/30 11:55:54;;;;;;;12.40;5.95;;;;;;;10.08;70.22;94486.94;5033288;28;20034;-83
2022/01/30 11:58:41;;;;;;;17.90;6.60;;;;;;;10.38;69.08;94479.34;5017879;28;20027;-84
2022/01/30 12:01:25;;;;;;;11.60;5.05;;;;;;;10.41;67.17;94484.09;5017241;28;20045;-85
2022/01/30 12:03:57;;;;;;;;;;;;;;;10.62;62.63;94478.84;5025959;28;20071;-83
2022/01/30 12:06:22;;;;;;;8.48;3.70;;;;;;;10.66;63.40;94472.03;5038758;28;19909;-85
2022/01/30 12:08:51;;;;;;;14.25;5.72;;;;;;;10.66;66.80;94470.19;5038744;28;20036;-83
2022/01/30 12:11:38;;;;;;;14.68;6.13;;;;;;;10.71;66.07;94462.31;5036273;28;20135;-83
2022/01/30 12:14:07;;;;;;;14.52;6.25;;;;;;;10.69;66.87;94468.88;5018563;28;20029;-83
2022/01/30 12:16:51;;;;;;;16.40;6.30;;;;;;;10.70;66.52;94462.59;5017686;28;20034;-83
2022/01/30 12:19:40;;;;;;;12.88;6.30;;;;;;;10.76;66.64;94456.28;5017453;28;20030;-84
2022/01/30 12:22:18;;;;;;;17.65;7.55;;;;;;;10.77;67.58;94447.38;5017465;28;20022;-83
2022/01/30 12:24:49;;;;;;;18.67;8.35;;;;;;;11.13;70.29;94447.25;5018598;28;20030;-83
2022/01/30 12:27:15;;;;;;;14.38;7.53;;;;;;;11.17;71.22;94442.25;5017212;28;20032;-83
2022/01/30 12:29:45;;;;;;;16.55;7.80;;;;;;;11.24;68.97;94439.34;5016716;28;20030;-83
2022/01/30 12:32:22;;;;;;;18.63;8.63;;;;;;;11.37;73.64;94435.34;5017304;28;20482;-83
2022/01/30 12:34:56;;;;;;;19.90;8.35;;;;;;;11.31;68.69;94429.34;5018130;28;20040;-84
2022/01/30 12:37:22;;;;;;;17.15;7.78;;;;;;;11.39;68.72;94428.78;5017165;28;20033;-84
2022/01/30 12:39:48;;;;;;;21.30;8.43;;;;;;;11.50;69.18;94426.13;5017956;28;20359;-83
2022/01/30 12:42:17;;;;;;;18.10;8.25;;;;;;;11.44;67.90;94423.50;5000739;28;20320;-83
2022/01/30 12:44:43;;;;;;;18.65;8.23;;;;;;;11.40;65.61;94422.47;5016843;28;20458;-83
2022/01/30 12:47:08;;;;;;;17.90;8.10;;;;;;;11.49;64.91;94414.81;5017034;28;20469;-83
2022/01/30 12:49:43;;;;;;;21.60;7.30;;;;;;;11.34;66.49;94415.72;5016735;28;20025;-83
2022/01/30 12:52:16;;;;;;;18.35;7.53;;;;;;;11.49;63.87;94412.19;5029645;28;20120;-84
2022/01/30 12:54:43;;;;;;;15.93;7.53;;;;;;;11.43;66.25;94406.19;5016692;28;20026;-83
2022/01/30 12:57:10;;;;;;;16.77;7.80;;;;;;;11.62;64.62;94402.16;5035304;28;20032;-83
2022/01/30 12:59:35;;;;;;;18.80;7.70;;;;;;;12.02;67.83;94400.34;5056601;28;20032;-84
2022/01/30 13:02:05;;;;;;;12.45;5.55;;;;;;;12.01;63.72;94398.75;5056050;28;20135;-83
2022/01/30 13:04:31;;;;;;;15.70;6.40;;;;;;;12.11;62.00;94393.41;5039747;28;20073;-83
2022/01/30 13:06:57;;;;;;;12.00;6.35;;;;;;;12.00;62.11;94395.31;5039653;28;20434;-83
2022/01/30 13:09:25;;;;;;;13.13;5.72;;;;;;;12.05;60.39;94398.97;5056384;28;20037;-84
2022/01/30 13:11:51;;;;;;;9.48;4.95;;;;;;;12.30;63.33;94390.13;5039483;28;20029;-83
2022/01/30 13:14:17;;;;;;;12.07;5.30;;;;;;;12.28;62.59;94385.13;5055943;28;20381;-83
2022/01/30 13:16:45;;;;;;;14.25;5.00;;;;;;;12.35;59.16;94397.16;5055433;28;20102;-83
2022/01/30 13:19:13;;;;;;;9.73;5.07;;;;;;;12.42;60.43;94387.09;5039145;28;20025;-84
2022/01/30 13:21:45;;;;;;;11.02;4.75;;;;;;;12.65;61.88;94390.03;5055337;28;20111;-84
2022/01/30 13:24:17;;;;;;;10.93;5.10;;;;;;;12.49;61.14;94376.25;5057115;28;20025;-83
2022/01/30 13:26:43;;;;;;;9.52;4.68;;;;;;;12.53;60.07;94383.31;5055877;28;20055;-83
2022/01/30 13:29:21;;;;;;;15.02;4.90;;;;;;;12.80;61.11;94376.72;5056084;28;20063;-84
2022/01/30 13:31:54;;;;;;;10.57;4.50;;;;;;;12.64;60.68;94385.84;5052224;28;20170;-83
2022/01/30 13:34:21;;;;;;;11.43;4.65;;;;;;;12.52;58.72;94376.50;5039481;28;20056;-83
2022/01/30 13:36:55;;;;;;;9.70;4.65;;;;;;;12.51;59.58;94379.41;5039425;28;20024;-83
2022/01/30 13:39:29;;;;;;;9.13;5.20;;;;;;;12.84;55.87;94382.22;5055796;28;20142;-84
2022/01/30 13:42:16;;;;;;;9.85;4.78;;;;;;;12.67;56.22;94383.44;5039784;28;20322;-83
2022/01/30 13:45:03;;;;;;;7.80;4.10;;;;;;;12.63;59.17;94384.28;5055988;28;20029;-83
2022/01/30 13:47:28;;;;;;;10.20;4.43;;;;;;;12.63;55.96;94386.91;5041900;28;20430;-83
2022/01/30 13:49:54;;;;;;;11.45;4.20;;;;;;;12.70;56.67;94382.88;5054951;28;20029;-83
2022/01/30 13:52:19;;;;;;;10.32;4.55;;;;;;;12.77;54.96;94379.91;5055473;28;20032;-83
2022/01/30 13:55:03;;;;;;;9.30;4.70;;;;;;;12.81;56.37;94383.56;5022777;28;20045;-84
2022/01/30 13:57:34;;;;;;;10.50;4.72;;;;;;;12.85;56.91;94370.63;5016030;28;20021;-83
2022/01/30 14:00:19;;;;;;;8.80;4.80;;;;;;;12.93;60.61;94377.88;5016387;28;20168;-84
2022/01/30 14:03:10;;;;;;;9.63;4.88;;;;;;;12.90;58.85;94375.81;4992792;28;20037;-84
2022/01/30 14:05:41;;;;;;;15.45;5.18;;;;;;;12.83;57.71;94365.66;4995260;28;20034;-84
2022/01/30 14:08:11;;;;;;;10.82;4.88;;;;;;;12.83;57.77;94370.91;5015955;28;20439;-85
2022/01/30 14:10:37;;;;;;;9.10;4.35;;;;;;;12.72;58.24;94374.69;5015453;28;20073;-84
2022/01/30 14:13:20;;;;;;;11.18;4.80;;;;;;;12.83;57.24;94373.53;5015502;28;20057;-84
2022/01/30 14:15:59;;;;;;;7.40;4.50;;;;;;;12.92;58.85;94370.28;5032545;28;20048;-84
2022/01/30 14:18:27;;;;;;;18.05;4.90;;;;;;;13.14;58.36;94373.16;5003066;28;20026;-84
2022/01/30 14:20:57;;;;;;;12.30;4.65;;;;;;;12.93;55.11;94371.84;5018952;28;20032;-84
2022/01/30 14:23:22;;;;;;;11.82;4.60;;;;;;;12.91;55.26;94369.50;5035214;28;20021;-84
2022/01/30 14:25:49;;;;;;;9.68;4.95;;;;;;;12.93;54.67;94369.22;5035236;28;20335;-84
2022/01/30 14:28:26;;;;;;;10.00;4.97;;;;;;;13.29;61.19;94374.03;5035126;28;20029;-84
2022/01/30 14:30:52;;;;;;;10.65;4.90;;;;;;;13.32;60.36;94370.81;5018636;28;20041;-84
2022/01/30 14:33:18;;;;;;;10.75;4.93;;;;;;;13.18;60.83;94364.69;5035062;28;20076;-83
2022/01/30 14:35:43;;;;;;;9.32;5.20;;;;;;;13.11;58.04;94365.84;5015460;28;20080;-83
2022/01/30 14:38:09;;;;;;;11.43;4.45;;;;;;;12.91;58.12;94358.19;5015593;28;20038;-84
2022/01/30 14:40:37;;;;;;;11.60;5.63;;;;;;;12.96;59.04;94360.75;5022409;28;20104;-83
2022/01/30 14:43:10;;;;;;;13.85;5.47;;;;;;;12.83;59.93;94351.69;5026135;28;20036;-84